createdAt,value
2022-10-17T00:00:06.266Z,100667.91
2022-10-17T00:02:33.155Z,100610.44
2022-10-17T00:05:00.273Z,100638.75
2022-10-17T00:07:27.565Z,100689.91
2022-10-17T00:09:55.583Z,100655.56
2022-10-17T00:12:23.177Z,100633.88
2022-10-17T00:14:51.247Z,100571.88
2022-10-17T00:17:18.966Z,100674.78
2022-10-17T00:19:51.865Z,100576.88
2022-10-17T00:22:19.008Z,100673.88
2022-10-17T00:24:46.171Z,100679.03
2022-10-17T00:27:13.640Z,100664.16
2022-10-17T00:29:41.080Z,100656.88
2022-10-17T00:32:08.271Z,100628.50
2022-10-17T00:34:35.266Z,100636.56
2022-10-17T00:37:02.910Z,100645.78
2022-10-17T00:39:30.051Z,100646.56
2022-10-17T00:41:57.133Z,100649.09
2022-10-17T00:44:30.370Z,100620.63
2022-10-17T00:47:05.370Z,100641.91
2022-10-17T00:49:39.064Z,100632.41
2022-10-17T00:52:16.009Z,100536.06
2022-10-17T00:54:51.938Z,100624.66
2022-10-17T00:57:20.910Z,100549.91
2022-10-17T00:59:53.145Z,100623.72
2022-10-17T01:02:22.296Z,100604.25
2022-10-17T01:04:55.232Z,100629.81
2022-10-17T01:07:23.343Z,100518.81
2022-10-17T01:09:50.694Z,100606.34
2022-10-17T01:12:23.219Z,100623.72
2022-10-17T01:14:56.878Z,100602.84
2022-10-17T01:17:40.167Z,100598.41
2022-10-17T01:20:44.415Z,100596.94
2022-10-17T01:23:29.640Z,100582.06
2022-10-17T01:26:09.038Z,100595.03
2022-10-17T01:29:10.210Z,100595.81
2022-10-17T01:31:41.775Z,100508.81
2022-10-17T01:34:42.116Z,100568.66
2022-10-17T01:37:21.928Z,100503.69
2022-10-17T01:40:07.075Z,100558.81
2022-10-17T01:42:54.973Z,100569.66
2022-10-17T01:45:40.959Z,100562.59
2022-10-17T01:48:15.105Z,100536.81
2022-10-17T01:51:07.793Z,100545.19
2022-10-17T01:53:41.969Z,100522.16
2022-10-17T01:56:13.356Z,100547.06
2022-10-17T01:58:46.701Z,100455.78
2022-10-17T02:01:14.247Z,100535.75
2022-10-17T02:03:43.919Z,100522.44
2022-10-17T02:06:11.688Z,100467.63
2022-10-17T02:08:48.006Z,100476.44
2022-10-17T02:11:19.383Z,100537.88
2022-10-17T02:14:01.887Z,100533.44
2022-10-17T02:16:32.479Z,100544.84
2022-10-17T02:19:12.127Z,100538.78
2022-10-17T02:21:50.851Z,100535.22
2022-10-17T02:24:27.731Z,100516.59
2022-10-17T02:26:56.175Z,100537.03
2022-10-17T02:29:31.798Z,100469.72
2022-10-17T02:32:07.162Z,100444.09
2022-10-17T02:34:46.235Z,100514.59
2022-10-17T02:37:18.682Z,100485.78
2022-10-17T02:39:47.766Z,100512.44
2022-10-17T02:42:16.360Z,100524.91
2022-10-17T02:44:45.248Z,100467.41
2022-10-17T02:47:27.186Z,100523.19
2022-10-17T02:49:59.197Z,100477.13
2022-10-17T02:52:37.870Z,100438.69
2022-10-17T02:55:08.592Z,100511.16
2022-10-17T02:57:42.952Z,100497.03
2022-10-17T03:00:13.278Z,100488.16
2022-10-17T03:02:41.622Z,100497.25
2022-10-17T03:05:11.497Z,100415.50
2022-10-17T03:07:39.291Z,100451.19
2022-10-17T03:10:07.594Z,100465.63
2022-10-17T03:12:34.748Z,100469.94
2022-10-17T03:15:02.451Z,100422.88
2022-10-17T03:17:31.519Z,100458.38
2022-10-17T03:19:59.117Z,100381.28
2022-10-17T03:22:26.213Z,100439.84
2022-10-17T03:24:53.375Z,100473.00
2022-10-17T03:27:20.987Z,100430.31
2022-10-17T03:29:48.248Z,100432.31
2022-10-17T03:32:17.996Z,100468.56
2022-10-17T03:34:46.031Z,100433.84
2022-10-17T03:37:13.321Z,100462.19
2022-10-17T03:39:41.815Z,100417.53
2022-10-17T03:42:09.398Z,100435.41
2022-10-17T03:44:36.822Z,100415.63
2022-10-17T03:47:04.863Z,100330.50
2022-10-17T03:49:32.371Z,100400.91
2022-10-17T03:51:59.505Z,100359.81
2022-10-17T03:54:28.224Z,100400.34
2022-10-17T03:59:28.045Z,100427.22
2022-10-17T04:02:02.898Z,100283.38
2022-10-17T04:04:30.039Z,100411.44
2022-10-17T04:06:57.985Z,100385.16
2022-10-17T04:09:25.912Z,100437.13
2022-10-17T04:12:01.416Z,100425.06
2022-10-17T04:14:30.179Z,100425.13
2022-10-17T04:16:58.551Z,100427.66
2022-10-17T04:19:27.192Z,100377.84
2022-10-17T04:21:54.828Z,100404.25
2022-10-17T04:24:22.959Z,100388.16
2022-10-17T04:26:56.713Z,100342.78
2022-10-17T04:29:27.658Z,100395.66
2022-10-17T04:32:04.351Z,100386.97
2022-10-17T04:34:40.668Z,100359.84
2022-10-17T04:37:08.011Z,100375.72
2022-10-17T04:39:36.204Z,100356.63
2022-10-17T04:42:03.674Z,100393.06
2022-10-17T04:44:31.817Z,100319.13
2022-10-17T04:46:59.282Z,100331.75
2022-10-17T04:49:27.428Z,100349.41
2022-10-17T04:51:59.681Z,100363.50
2022-10-17T04:54:38.157Z,100367.69
2022-10-17T04:57:09.658Z,100395.41
2022-10-17T04:59:37.192Z,100381.06
2022-10-17T05:02:24.722Z,100358.41
2022-10-17T05:04:52.175Z,100391.34
2022-10-17T05:07:21.715Z,100349.25
2022-10-17T05:10:18.013Z,100367.16
2022-10-17T05:12:49.853Z,100368.94
2022-10-17T05:15:19.193Z,100294.81
2022-10-17T05:17:46.539Z,100333.84
2022-10-17T05:20:14.041Z,100282.09
2022-10-17T05:22:42.401Z,100367.69
2022-10-17T05:25:11.555Z,100358.91
2022-10-17T05:27:39.525Z,100360.88
2022-10-17T05:30:07.466Z,100372.34
2022-10-17T05:32:36.691Z,100290.00
2022-10-17T05:35:05.052Z,100353.97
2022-10-17T05:37:33.058Z,100367.47
2022-10-17T05:40:02.242Z,100273.72
2022-10-17T05:42:31.375Z,100248.13
2022-10-17T05:44:58.771Z,100356.41
2022-10-17T05:47:27.154Z,100292.75
2022-10-17T05:49:54.557Z,100318.41
2022-10-17T05:52:28.304Z,100346.06
2022-10-17T05:55:12.759Z,100303.59
2022-10-17T05:57:40.630Z,100324.88
2022-10-17T06:00:13.446Z,100296.88
2022-10-17T06:02:48.247Z,100242.00
2022-10-17T06:05:17.140Z,100327.28
2022-10-17T06:07:44.873Z,100328.41
2022-10-17T06:10:15.214Z,100250.78
2022-10-17T06:12:44.068Z,100329.00
2022-10-17T06:15:12.066Z,100253.47
2022-10-17T06:17:41.570Z,100313.69
2022-10-17T06:20:09.917Z,100339.91
2022-10-17T06:22:36.968Z,100233.94
2022-10-17T06:25:08.621Z,100272.75
2022-10-17T06:27:35.809Z,100278.66
2022-10-17T06:30:04.251Z,100279.94
2022-10-17T06:32:32.283Z,100313.44
2022-10-17T06:35:00.306Z,100216.25
2022-10-17T06:37:35.593Z,100299.50
2022-10-17T06:40:09.177Z,100316.72
2022-10-17T06:42:39.256Z,100228.13
2022-10-17T06:45:24.825Z,100182.03
2022-10-17T06:48:12.182Z,100279.25
2022-10-17T06:51:11.994Z,100190.88
2022-10-17T06:53:49.775Z,100297.97
2022-10-17T06:56:49.888Z,100268.91
2022-10-17T06:59:26.296Z,100270.41
2022-10-17T07:02:02.372Z,100265.38
2022-10-17T07:04:30.842Z,100269.97
2022-10-17T07:09:27.988Z,100247.25
2022-10-17T07:11:57.890Z,100213.06
2022-10-17T07:14:32.114Z,100178.59
2022-10-17T07:17:00.456Z,100281.47
2022-10-17T07:19:29.906Z,100140.22
2022-10-17T07:21:57.311Z,100205.72
2022-10-17T07:24:25.789Z,100252.19
2022-10-17T07:26:58.794Z,100203.53
2022-10-17T07:29:26.267Z,100255.09
2022-10-17T07:32:09.076Z,100214.53
2022-10-17T07:34:36.953Z,100174.72
2022-10-17T07:37:07.121Z,100220.34
2022-10-17T07:39:35.778Z,100178.00
2022-10-17T07:42:05.335Z,100198.38
2022-10-17T07:44:32.450Z,100218.50
2022-10-17T07:47:01.270Z,100208.56
2022-10-17T07:49:29.546Z,100230.53
2022-10-17T07:51:56.816Z,100243.69
2022-10-17T07:54:24.059Z,100171.41
2022-10-17T07:56:51.157Z,100213.03
2022-10-17T07:59:19.584Z,100230.78
2022-10-17T08:01:47.194Z,100213.47
2022-10-17T08:04:14.501Z,100159.44
2022-10-17T08:06:41.794Z,100182.59
2022-10-17T08:09:09.284Z,100217.78
2022-10-17T08:11:37.329Z,100234.16
2022-10-17T08:14:04.382Z,100182.88
2022-10-17T08:16:31.585Z,100208.72
2022-10-17T08:18:59.139Z,100205.38
2022-10-17T08:21:26.320Z,100147.09
2022-10-17T08:23:53.901Z,100156.97
2022-10-17T08:26:20.986Z,100142.19
2022-10-17T08:28:49.719Z,100218.03
2022-10-17T08:31:19.300Z,100139.22
2022-10-17T08:33:48.272Z,100108.66
2022-10-17T08:36:18.945Z,100101.03
2022-10-17T08:38:51.788Z,100184.50
2022-10-17T08:41:25.953Z,100184.66
2022-10-17T08:44:18.818Z,100185.75
2022-10-17T08:46:50.004Z,100088.69
2022-10-17T08:49:37.617Z,100127.53
2022-10-17T08:52:17.243Z,100124.59
2022-10-17T08:54:47.850Z,100201.38
2022-10-17T08:57:30.994Z,100135.88
2022-10-17T08:59:59.156Z,100122.00
2022-10-17T09:02:48.622Z,100233.78
2022-10-17T09:05:38.215Z,100208.19
2022-10-17T09:08:30.006Z,100210.88
2022-10-17T09:11:03.717Z,100200.97
2022-10-17T09:13:48.777Z,100220.47
2022-10-17T09:16:30.421Z,100205.53
2022-10-17T09:19:08.987Z,100229.72
2022-10-17T09:21:52.353Z,100218.50
2022-10-17T09:24:27.939Z,100115.78
2022-10-17T09:26:56.001Z,100107.34
2022-10-17T09:29:28.636Z,100201.75
2022-10-17T09:32:04.920Z,100210.22
2022-10-17T09:34:33.049Z,100198.56
2022-10-17T09:37:02.591Z,100166.09
2022-10-17T09:39:33.254Z,100056.16
2022-10-17T09:42:02.724Z,100187.84
2022-10-17T09:44:31.303Z,100193.03
2022-10-17T09:47:07.237Z,100182.59
2022-10-17T09:49:38.172Z,100179.84
2022-10-17T09:52:12.525Z,100161.06
2022-10-17T09:54:44.559Z,100154.19
2022-10-17T09:57:13.301Z,100162.97
2022-10-17T09:59:46.992Z,100174.41
2022-10-17T10:05:41.501Z,100162.44
2022-10-17T10:08:17.687Z,100131.91
2022-10-17T10:11:00.608Z,100046.84
2022-10-17T10:13:29.168Z,100134.75
2022-10-17T10:16:30.348Z,100148.13
2022-10-17T10:18:58.547Z,100156.16
2022-10-17T10:21:27.678Z,100160.66
2022-10-17T10:24:09.874Z,100147.81
2022-10-17T10:26:49.098Z,100138.44
2022-10-17T10:29:21.533Z,100127.84
2022-10-17T10:31:50.004Z,100096.28
2022-10-17T10:34:22.594Z,100076.00
2022-10-17T10:36:55.421Z,100130.13
2022-10-17T10:39:32.384Z,100139.91
2022-10-17T10:42:02.132Z,100150.38
2022-10-17T10:44:32.282Z,100102.03
2022-10-17T10:47:18.380Z,100102.44
2022-10-17T10:49:45.932Z,100087.31
2022-10-17T10:52:37.025Z,100116.78
2022-10-17T10:55:16.441Z,100116.81
2022-10-17T10:57:47.460Z,100104.38
2022-10-17T11:00:17.476Z,100124.69
2022-10-17T11:03:12.774Z,100114.28
2022-10-17T11:05:51.338Z,100096.63
2022-10-17T11:09:11.066Z,100115.25
2022-10-17T11:11:48.049Z,100103.63
2022-10-17T11:14:49.518Z,100099.53
2022-10-17T11:17:37.072Z,100093.44
2022-10-17T11:20:12.944Z,100104.78
2022-10-17T11:22:48.929Z,100109.16
2022-10-17T11:25:37.266Z,100077.75
2022-10-17T11:28:14.987Z,100034.66
2022-10-17T11:30:47.424Z,100063.91
2022-10-17T11:33:30.724Z,100072.31
2022-10-17T11:36:05.233Z,100053.28
2022-10-17T11:39:01.962Z,100089.25
2022-10-17T11:41:39.320Z,100062.19
2022-10-17T11:44:22.843Z,100054.25
2022-10-17T11:46:57.515Z,100013.06
2022-10-17T11:49:34.209Z,100014.78
2022-10-17T11:52:22.801Z,100074.63
2022-10-17T11:55:10.972Z,100027.19
2022-10-17T11:57:49.283Z,100045.03
2022-10-17T12:00:40.717Z,100058.94
2022-10-17T12:03:33.777Z,100083.41
2022-10-17T12:06:04.895Z,100061.63
2022-10-17T12:09:01.892Z,100064.25
2022-10-17T12:11:45.895Z,100059.78
2022-10-17T12:14:39.454Z,100034.59
2022-10-17T12:17:21.219Z,99990.06
2022-10-17T12:19:48.864Z,100032.75
2022-10-17T12:22:21.371Z,100048.63
2022-10-17T12:25:03.324Z,100036.44
2022-10-17T12:27:43.845Z,100031.06
2022-10-17T12:30:26.216Z,100004.91
2022-10-17T12:33:07.392Z,100019.84
2022-10-17T12:35:37.589Z,100049.56
2022-10-17T12:38:27.560Z,100038.25
2022-10-17T12:40:56.996Z,100021.75
2022-10-17T12:43:30.075Z,100026.97
2022-10-17T12:46:05.372Z,100016.50
2022-10-17T12:48:38.524Z,100021.69
2022-10-17T12:54:07.217Z,100031.41
2022-10-17T12:56:45.599Z,100039.31
2022-10-17T12:59:21.765Z,100020.66
2022-10-17T13:01:54.138Z,99984.50
2022-10-17T13:04:22.175Z,99951.84
2022-10-17T13:06:54.893Z,99962.59
2022-10-17T13:09:28.085Z,100052.41
2022-10-17T13:12:03.246Z,99887.41
2022-10-17T13:14:35.563Z,99926.19
2022-10-17T13:17:05.518Z,99932.50
2022-10-17T13:19:43.334Z,100041.16
2022-10-17T13:22:15.085Z,100045.50
2022-10-17T13:24:42.430Z,100029.47
2022-10-17T13:27:26.826Z,100058.66
2022-10-17T13:29:56.462Z,99988.75
2022-10-17T13:32:25.841Z,100036.38
2022-10-17T13:35:13.353Z,100043.13
2022-10-17T13:37:42.925Z,100012.84
2022-10-17T13:43:20.015Z,100049.28
2022-10-17T13:45:52.501Z,100120.06
2022-10-17T13:48:28.714Z,100113.16
2022-10-17T13:51:02.422Z,100006.19
2022-10-17T13:53:34.621Z,100113.28
2022-10-17T13:56:26.931Z,100114.16
2022-10-17T13:58:57.544Z,100115.94
2022-10-17T14:01:28.666Z,100086.91
2022-10-17T14:04:07.651Z,100066.44
2022-10-17T14:06:40.990Z,100002.94
2022-10-17T14:09:28.408Z,100035.69
2022-10-17T14:12:08.789Z,100088.00
2022-10-17T14:14:58.054Z,100071.09
2022-10-17T14:17:27.346Z,100099.59
2022-10-17T14:20:34.119Z,100045.91
2022-10-17T14:22:54.551Z,100092.50
2022-10-17T14:25:38.116Z,100081.09
2022-10-17T14:28:15.274Z,100086.50
2022-10-17T14:30:57.122Z,100002.59
2022-10-17T14:33:29.659Z,100082.09
2022-10-17T14:35:59.136Z,100077.78
2022-10-17T14:38:27.561Z,100060.97
2022-10-17T14:41:37.425Z,100023.13
2022-10-17T14:43:58.687Z,99993.19
2022-10-17T14:46:26.330Z,100074.28
2022-10-17T14:49:04.714Z,100030.88
2022-10-17T14:51:44.675Z,100059.25
2022-10-17T14:54:27.131Z,100001.50
2022-10-17T14:56:55.062Z,100022.56
2022-10-17T14:59:52.259Z,100040.47
2022-10-17T15:02:14.260Z,100038.72
2022-10-17T15:04:41.906Z,100035.03
2022-10-17T15:07:17.339Z,99915.94
2022-10-17T15:09:47.467Z,100071.25
2022-10-17T15:12:19.895Z,100066.78
2022-10-17T15:14:48.834Z,100047.41
2022-10-17T15:17:23.672Z,100071.19
2022-10-17T15:19:50.985Z,100066.00
2022-10-17T15:22:18.623Z,100013.66
2022-10-17T15:24:46.818Z,100075.59
2022-10-17T15:27:22.276Z,99993.56
2022-10-17T15:29:50.659Z,100085.59
2022-10-17T15:32:18.010Z,100098.72
2022-10-17T15:34:45.401Z,100057.34
2022-10-17T15:37:22.202Z,100019.25
2022-10-17T15:39:54.801Z,100107.47
2022-10-17T15:42:30.264Z,100084.69
2022-10-17T15:44:58.470Z,100028.31
2022-10-17T15:47:33.868Z,100073.59
2022-10-17T15:50:40.624Z,100005.41
2022-10-17T15:53:35.581Z,100082.44
2022-10-17T15:56:03.856Z,99994.81
2022-10-17T15:58:36.324Z,99980.75
2022-10-17T16:01:05.561Z,99941.00
2022-10-17T16:03:34.224Z,100075.94
2022-10-17T16:06:01.563Z,100088.50
2022-10-17T16:08:29.940Z,100100.13
2022-10-17T16:10:57.540Z,100097.50
2022-10-17T16:13:25.203Z,99994.25
2022-10-17T16:15:52.809Z,100091.34
2022-10-17T16:18:21.330Z,100071.91
2022-10-17T16:20:48.655Z,100016.16
2022-10-17T16:23:15.736Z,100067.66
2022-10-17T16:25:43.133Z,100081.72
2022-10-17T16:28:12.010Z,100029.66
2022-10-17T16:30:45.045Z,100058.88
2022-10-17T16:33:12.818Z,100040.34
2022-10-17T16:35:39.925Z,100101.34
2022-10-17T16:38:08.263Z,100020.06
2022-10-17T16:40:38.782Z,99983.06
2022-10-17T16:43:06.135Z,100059.94
2022-10-17T16:45:33.397Z,100101.44
2022-10-17T16:48:00.709Z,100052.03
2022-10-17T16:50:28.293Z,100054.69
2022-10-17T16:52:55.883Z,100036.28
2022-10-17T16:55:23.917Z,100085.72
2022-10-17T16:57:51.005Z,100112.22
2022-10-17T17:00:19.065Z,100021.22
2022-10-17T17:02:49.260Z,100096.31
2022-10-17T17:05:16.524Z,100092.84
2022-10-17T17:07:43.587Z,100089.25
2022-10-17T17:10:11.379Z,100054.88
2022-10-17T17:12:39.647Z,100088.50
2022-10-17T17:15:07.019Z,100078.88
2022-10-17T17:17:49.742Z,100111.50
2022-10-17T17:20:19.695Z,100126.34
2022-10-17T17:22:48.749Z,100078.06
2022-10-17T17:25:16.873Z,100108.97
2022-10-17T17:27:44.620Z,100114.22
2022-10-17T17:30:12.371Z,100069.31
2022-10-17T17:32:40.096Z,100065.03
2022-10-17T17:35:07.605Z,100100.31
2022-10-17T17:37:35.045Z,100103.00
2022-10-17T17:40:02.153Z,100070.41
2022-10-17T17:42:30.338Z,100067.06
2022-10-17T17:44:57.509Z,100088.88
2022-10-17T17:47:24.541Z,100080.16
2022-10-17T17:49:51.574Z,100093.44
2022-10-17T17:52:18.632Z,100103.16
2022-10-17T17:54:45.759Z,100081.03
2022-10-17T17:57:12.930Z,100104.94
2022-10-17T17:59:41.331Z,100090.91
2022-10-17T18:02:11.221Z,100104.97
2022-10-17T18:04:39.382Z,100106.75
2022-10-17T18:07:06.790Z,100063.63
2022-10-17T18:09:34.964Z,100090.16
2022-10-17T18:12:11.219Z,100079.59
2022-10-17T18:14:40.083Z,100086.72
2022-10-17T18:17:07.337Z,100084.94
2022-10-17T18:19:36.687Z,100081.38
2022-10-17T18:22:04.088Z,100088.38
2022-10-17T18:24:31.368Z,100079.69
2022-10-17T18:26:59.976Z,100092.91
2022-10-17T18:29:29.639Z,100088.56
2022-10-17T18:31:57.804Z,100074.56
2022-10-17T18:34:35.042Z,100083.34
2022-10-17T18:37:03.693Z,100048.78
2022-10-17T18:39:31.030Z,100100.88
2022-10-17T18:41:58.681Z,100069.16
2022-10-17T18:44:26.175Z,100075.38
2022-10-17T18:46:58.598Z,100083.25
2022-10-17T18:49:30.112Z,100084.91
2022-10-17T18:51:59.673Z,100073.38
2022-10-17T18:54:26.913Z,100100.69
2022-10-17T18:56:56.840Z,100105.00
2022-10-17T18:59:25.707Z,100105.84
2022-10-17T19:01:52.871Z,100085.44
2022-10-17T19:04:20.532Z,100113.69
2022-10-17T19:06:49.828Z,100113.75
2022-10-17T19:09:18.087Z,100116.41
2022-10-17T19:11:45.554Z,100107.59
2022-10-17T19:14:14.285Z,100116.53
2022-10-17T19:16:49.056Z,100122.66
2022-10-17T19:19:21.841Z,100127.09
2022-10-17T19:21:53.705Z,100132.34
2022-10-17T19:24:24.565Z,100125.31
2022-10-17T19:26:54.205Z,100109.34
2022-10-17T19:29:25.127Z,100125.31
2022-10-17T19:31:53.530Z,100081.28
2022-10-17T19:34:21.789Z,100104.09
2022-10-17T19:36:49.478Z,100121.78
2022-10-17T19:39:23.425Z,100077.69
2022-10-17T19:41:50.819Z,100084.50
2022-10-17T19:44:18.524Z,100121.72
2022-10-17T19:46:47.245Z,100114.59
2022-10-17T19:49:15.447Z,100108.31
2022-10-17T19:51:42.615Z,100118.22
2022-10-17T19:54:10.284Z,100118.16
2022-10-17T19:56:38.467Z,100128.59
2022-10-17T19:59:06.874Z,100085.50
2022-10-17T20:01:39.673Z,100122.66
2022-10-17T20:04:11.002Z,100112.91
2022-10-17T20:06:39.058Z,100122.72
2022-10-17T20:09:09.826Z,100097.16
2022-10-17T20:11:39.780Z,100118.19
2022-10-17T20:14:07.006Z,100130.44
2022-10-17T20:16:36.000Z,100131.28
2022-10-17T20:19:10.784Z,100133.81
2022-10-17T20:21:39.740Z,100131.91
2022-10-17T20:24:11.371Z,100096.59
2022-10-17T20:26:39.451Z,100128.28
2022-10-17T20:29:21.969Z,100111.41
2022-10-17T20:31:49.245Z,100124.47
2022-10-17T20:34:18.630Z,100115.63
2022-10-17T20:36:46.429Z,100143.88
2022-10-17T20:39:15.773Z,100140.38
2022-10-17T20:41:43.241Z,100109.44
2022-10-17T20:44:11.495Z,100139.44
2022-10-17T20:46:52.694Z,100146.34
2022-10-17T20:49:26.794Z,100139.31
2022-10-17T20:51:53.724Z,100131.22
2022-10-17T20:54:22.024Z,100117.16
2022-10-17T20:56:49.077Z,100136.63
2022-10-17T20:59:18.028Z,100150.78
2022-10-17T21:01:46.272Z,100160.47
2022-10-17T21:07:01.390Z,100127.91
2022-10-17T21:09:28.581Z,100147.34
2022-10-17T21:11:56.999Z,100122.53
2022-10-17T21:14:25.467Z,100129.72
2022-10-17T21:16:52.881Z,100141.97
2022-10-17T21:19:21.735Z,100128.81
2022-10-17T21:21:49.053Z,100125.09
2022-10-17T21:24:18.166Z,100110.25
2022-10-17T21:26:46.634Z,100083.06
2022-10-17T21:29:14.245Z,100079.44
2022-10-17T21:31:43.675Z,100134.88
2022-10-17T21:34:17.715Z,100128.81
2022-10-17T21:36:45.364Z,100128.81
2022-10-17T21:39:14.360Z,100113.78
2022-10-17T21:41:42.449Z,100123.44
2022-10-17T21:44:15.569Z,100120.88
2022-10-17T21:46:43.329Z,100120.81
2022-10-17T21:49:15.637Z,100116.38
2022-10-17T21:51:44.740Z,100112.06
2022-10-17T21:54:12.152Z,100123.41
2022-10-17T21:56:39.732Z,100110.16
2022-10-17T21:59:07.113Z,100122.47
2022-10-17T22:01:36.668Z,100127.72
2022-10-17T22:04:06.245Z,100117.13
2022-10-17T22:06:40.537Z,100111.09
2022-10-17T22:09:18.918Z,100114.72
2022-10-17T22:11:48.625Z,100111.22
2022-10-17T22:14:19.002Z,100105.09
2022-10-17T22:16:46.882Z,100107.84
2022-10-17T22:19:16.988Z,100096.41
2022-10-17T22:21:43.952Z,100101.59
2022-10-17T22:24:14.727Z,100095.47
2022-10-17T22:26:42.541Z,100090.94
2022-10-17T22:29:09.622Z,100099.78
2022-10-17T22:31:38.365Z,100075.13
2022-10-17T22:34:07.392Z,100101.50
2022-10-17T22:36:35.584Z,100104.91
2022-10-17T22:39:03.666Z,100100.47
2022-10-17T22:41:30.738Z,100060.69
2022-10-17T22:43:58.062Z,100097.69
2022-10-17T22:46:25.888Z,100067.59
2022-10-17T22:48:52.922Z,100102.88
2022-10-17T22:51:20.155Z,100097.56
2022-10-17T22:53:47.656Z,100080.03
2022-10-17T22:56:18.902Z,100084.47
2022-10-17T22:58:46.361Z,100092.38
2022-10-17T23:01:16.711Z,100072.97
2022-10-17T23:03:44.174Z,100051.09
2022-10-17T23:06:11.800Z,100080.13
2022-10-17T23:08:39.690Z,100094.19
2022-10-17T23:11:08.112Z,100085.31
2022-10-17T23:13:35.710Z,100094.09
2022-10-17T23:16:03.824Z,100078.22
2022-10-17T23:21:02.841Z,100076.47
2022-10-17T23:23:29.946Z,100076.41
2022-10-17T23:26:10.876Z,100071.78
2022-10-17T23:28:38.599Z,100048.09
2022-10-17T23:31:13.981Z,100065.81
2022-10-17T23:33:41.810Z,100089.38
2022-10-17T23:36:11.148Z,100078.84
2022-10-17T23:38:39.383Z,100069.91
2022-10-17T23:41:06.748Z,100071.78
2022-10-17T23:43:34.552Z,100059.28
2022-10-17T23:46:02.426Z,100058.34
2022-10-17T23:48:29.769Z,100093.59
2022-10-17T23:50:57.250Z,100083.03
2022-10-17T23:53:24.927Z,100063.56
2022-10-17T23:55:52.013Z,100035.25
2022-10-17T23:58:18.921Z,100075.94
